createdAt,value
2019-03-23T00:02:08.343Z,72.97
2019-03-23T00:04:40.662Z,71.51
2019-03-23T00:07:13.140Z,71.51
2019-03-23T00:09:45.583Z,71.47
2019-03-23T00:12:19.286Z,72.96
2019-03-23T00:14:52.809Z,72.70
2019-03-23T00:17:25.324Z,72.70
2019-03-23T00:19:57.589Z,72.88
2019-03-23T00:22:29.899Z,72.88
2019-03-23T00:25:02.414Z,73.36
2019-03-23T00:27:34.765Z,73.33
2019-03-23T00:30:12.450Z,73.30
2019-03-23T00:32:44.244Z,73.77
2019-03-23T00:35:16.530Z,73.82
2019-03-23T00:37:48.864Z,74.21
2019-03-23T00:40:22.393Z,74.10
2019-03-23T00:42:54.814Z,74.09
2019-03-23T00:45:27.285Z,74.09
2019-03-23T00:47:59.591Z,72.35
2019-03-23T00:50:32.051Z,72.35
2019-03-23T00:53:04.374Z,73.19
2019-03-23T00:55:36.835Z,72.20
2019-03-23T00:58:09.304Z,72.20
2019-03-23T01:00:41.772Z,73.18
2019-03-23T01:03:14.348Z,73.18
2019-03-23T01:05:46.434Z,74.74
2019-03-23T01:08:18.442Z,73.60
2019-03-23T01:10:50.645Z,75.12
2019-03-23T01:13:23.066Z,75.12
2019-03-23T01:15:55.535Z,74.51
2019-03-23T01:18:28.016Z,74.02
2019-03-23T01:21:00.459Z,74.35
2019-03-23T01:23:32.247Z,74.85
2019-03-23T01:26:04.744Z,75.76
2019-03-23T01:28:37.302Z,75.20
2019-03-23T01:31:11.300Z,75.77
2019-03-23T01:33:43.663Z,75.53
2019-03-23T01:36:16.297Z,75.53
2019-03-23T01:38:48.657Z,75.32
2019-03-23T01:41:21.336Z,75.32
2019-03-23T01:43:54.602Z,76.31
2019-03-23T01:46:27.276Z,76.38
2019-03-23T01:48:59.644Z,76.35
2019-03-23T01:51:32.058Z,76.60
2019-03-23T01:54:04.458Z,76.77
2019-03-23T01:56:49.682Z,76.43
2019-03-23T01:59:22.282Z,76.67
2019-03-23T02:01:54.673Z,76.95
2019-03-23T02:04:27.306Z,76.14
2019-03-23T02:06:59.661Z,77.13
2019-03-23T02:09:39.052Z,77.13
2019-03-23T02:12:11.690Z,78.17
2019-03-23T02:14:44.284Z,77.70
2019-03-23T02:17:16.686Z,77.61
2019-03-23T02:19:49.295Z,77.61
2019-03-23T02:22:22.757Z,77.59
2019-03-23T02:24:55.303Z,77.59
2019-03-23T02:27:27.674Z,77.82
2019-03-23T02:30:00.473Z,77.82
2019-03-23T02:32:33.228Z,78.30
2019-03-23T02:35:09.715Z,78.34
2019-03-23T02:37:43.291Z,78.98
2019-03-23T02:40:16.538Z,78.82
2019-03-23T02:42:49.160Z,78.82
2019-03-23T02:45:21.842Z,78.80
2019-03-23T02:47:54.319Z,78.79
2019-03-23T02:50:26.601Z,78.96
2019-03-23T02:53:00.442Z,78.96
2019-03-23T02:55:34.344Z,79.23
2019-03-23T02:58:06.806Z,79.10
2019-03-23T03:00:39.373Z,79.10
2019-03-23T03:03:11.642Z,78.43
2019-03-23T03:05:44.291Z,78.43
2019-03-23T03:08:16.696Z,79.24
2019-03-23T03:10:49.301Z,79.24
2019-03-23T03:13:23.292Z,79.17
2019-03-23T03:15:57.821Z,78.79
2019-03-23T03:18:30.322Z,78.79
2019-03-23T03:21:04.287Z,79.29
2019-03-23T03:23:36.680Z,79.52
2019-03-23T03:26:09.272Z,79.52
2019-03-23T03:28:41.609Z,80.01
2019-03-23T03:31:14.321Z,79.92
2019-03-23T03:33:46.649Z,79.12
2019-03-23T03:36:19.296Z,79.12
2019-03-23T03:38:51.565Z,79.01
2019-03-23T03:41:23.839Z,78.65
2019-03-23T03:43:56.292Z,80.04
2019-03-23T03:46:28.554Z,79.94
2019-03-23T03:49:11.846Z,79.94
2019-03-23T03:51:34.936Z,80.46
2019-03-23T03:54:07.339Z,81.02
2019-03-23T03:56:39.759Z,81.02
2019-03-23T03:59:12.334Z,81.02
2019-03-23T04:01:44.630Z,80.38
2019-03-23T04:04:17.303Z,80.38
2019-03-23T04:06:49.566Z,80.56
2019-03-23T04:09:22.044Z,80.56
2019-03-23T04:11:54.375Z,79.94
2019-03-23T04:14:26.124Z,80.44
2019-03-23T04:16:59.529Z,79.35
2019-03-23T04:19:31.825Z,78.56
2019-03-23T04:22:04.315Z,81.35
2019-03-23T04:24:36.247Z,81.35
2019-03-23T04:27:08.559Z,80.83
2019-03-23T04:29:41.337Z,81.83
2019-03-23T04:32:13.774Z,80.09
2019-03-23T04:34:46.303Z,80.09
2019-03-23T04:37:19.006Z,79.54
2019-03-23T04:39:51.469Z,81.03
2019-03-23T04:42:24.276Z,81.51
2019-03-23T04:44:56.867Z,82.07
2019-03-23T04:47:29.287Z,81.74
2019-03-23T04:50:01.700Z,80.79
2019-03-23T04:52:35.274Z,80.79
2019-03-23T04:55:14.415Z,81.69
2019-03-23T04:57:46.816Z,81.22
2019-03-23T05:00:21.983Z,81.22
2019-03-23T05:02:55.523Z,81.89
2019-03-23T05:05:27.830Z,81.27
2019-03-23T05:08:00.361Z,81.64
2019-03-23T05:10:32.845Z,82.39
2019-03-23T05:13:05.281Z,82.39
2019-03-23T05:15:37.559Z,82.65
2019-03-23T05:18:09.821Z,82.65
2019-03-23T05:20:42.296Z,82.09
2019-03-23T05:23:15.578Z,82.01
2019-03-23T05:25:47.713Z,81.62
2019-03-23T05:28:20.344Z,81.14
2019-03-23T05:30:54.383Z,83.04
2019-03-23T05:33:26.808Z,82.18
2019-03-23T05:35:59.348Z,82.18
2019-03-23T05:38:31.819Z,81.50
2019-03-23T05:41:04.297Z,81.50
2019-03-23T05:43:36.855Z,81.52
2019-03-23T05:46:14.617Z,81.52
2019-03-23T05:48:47.393Z,81.62
2019-03-23T05:51:22.090Z,82.56
2019-03-23T05:53:54.423Z,81.85
2019-03-23T05:56:26.451Z,81.59
2019-03-23T05:58:58.819Z,80.78
2019-03-23T06:01:31.365Z,80.45
2019-03-23T06:04:04.285Z,79.72
2019-03-23T06:06:36.743Z,80.13
2019-03-23T06:09:09.877Z,80.13
2019-03-23T06:11:42.300Z,80.01
2019-03-23T06:14:14.700Z,80.39
2019-03-23T06:16:47.301Z,80.39
2019-03-23T06:19:19.839Z,80.29
2019-03-23T06:21:52.289Z,80.29
2019-03-23T06:24:24.593Z,80.18
2019-03-23T06:26:57.067Z,80.18
2019-03-23T06:29:29.452Z,80.30
2019-03-23T06:32:01.249Z,80.54
2019-03-23T06:34:33.432Z,80.41
2019-03-23T06:37:07.445Z,79.60
2019-03-23T06:39:39.826Z,78.92
2019-03-23T06:42:13.678Z,78.42
2019-03-23T06:44:46.290Z,77.93
2019-03-23T06:47:18.633Z,76.52
2019-03-23T06:49:51.257Z,76.52
2019-03-23T06:52:25.317Z,71.56
2019-03-23T06:54:57.760Z,76.16
2019-03-23T06:57:30.370Z,76.16
2019-03-23T07:00:02.706Z,75.46
2019-03-23T07:02:35.281Z,75.46
2019-03-23T07:05:11.303Z,75.42
2019-03-23T07:07:47.381Z,74.40
2019-03-23T07:10:19.713Z,73.25
2019-03-23T07:12:52.289Z,73.25
2019-03-23T07:15:24.562Z,72.08
2019-03-23T07:18:27.051Z,72.08
2019-03-23T07:20:59.371Z,70.57
2019-03-23T07:23:34.480Z,69.90
2019-03-23T07:26:06.243Z,69.90
2019-03-23T07:28:38.604Z,70.83
2019-03-23T07:31:11.297Z,67.86
2019-03-23T07:33:43.761Z,69.35
2019-03-23T07:36:16.425Z,69.35
2019-03-23T07:38:49.332Z,68.99
2019-03-23T07:41:21.793Z,68.61
2019-03-23T07:43:54.335Z,68.61
2019-03-23T07:46:26.823Z,68.23
2019-03-23T07:48:59.281Z,67.67
2019-03-23T07:51:31.326Z,67.57
2019-03-23T07:54:03.737Z,66.25
2019-03-23T07:56:36.287Z,66.25
2019-03-23T07:59:09.305Z,65.71
2019-03-23T08:01:41.746Z,65.71
2019-03-23T08:04:14.288Z,64.63
2019-03-23T08:06:46.934Z,65.15
2019-03-23T08:09:20.616Z,64.28
2019-03-23T08:11:53.422Z,63.44
2019-03-23T08:14:25.033Z,62.91
2019-03-23T08:16:57.322Z,62.42
2019-03-23T08:19:29.406Z,62.58
2019-03-23T08:22:01.686Z,61.61
2019-03-23T08:24:34.279Z,61.61
2019-03-23T08:27:06.733Z,61.41
2019-03-23T08:29:39.266Z,60.72
2019-03-23T08:32:11.629Z,59.71
2019-03-23T08:34:44.021Z,59.66
2019-03-23T08:37:16.525Z,58.99
2019-03-23T08:39:48.945Z,58.48
2019-03-23T08:42:21.514Z,58.28
2019-03-23T08:44:54.047Z,57.79
2019-03-23T08:47:27.373Z,57.51
2019-03-23T08:49:59.722Z,56.74
2019-03-23T08:52:32.282Z,56.13
2019-03-23T08:55:05.317Z,56.36
2019-03-23T08:57:41.256Z,55.72
2019-03-23T09:00:14.006Z,55.72
2019-03-23T09:02:46.379Z,54.95
2019-03-23T09:05:18.885Z,54.22
2019-03-23T09:07:52.590Z,54.22
2019-03-23T09:10:25.456Z,53.62
2019-03-23T09:12:58.282Z,53.52
2019-03-23T09:15:32.791Z,52.46
2019-03-23T09:18:05.326Z,52.46
2019-03-23T09:20:38.850Z,51.29
2019-03-23T09:23:11.315Z,52.29
2019-03-23T09:25:45.615Z,51.54
2019-03-23T09:28:18.036Z,50.86
2019-03-23T09:30:50.542Z,50.86
2019-03-23T09:33:22.853Z,50.55
2019-03-23T09:35:55.310Z,49.45
2019-03-23T09:38:27.603Z,49.23
2019-03-23T09:41:00.371Z,49.23
2019-03-23T09:43:32.734Z,48.22
2019-03-23T09:46:05.553Z,48.22
2019-03-23T09:48:39.764Z,47.11
2019-03-23T09:51:12.297Z,47.36
2019-03-23T09:53:44.670Z,47.25
2019-03-23T09:56:17.293Z,47.25
2019-03-23T09:58:49.746Z,45.06
2019-03-23T10:01:22.308Z,45.06
2019-03-23T10:03:55.025Z,44.81
2019-03-23T10:06:27.474Z,44.81
2019-03-23T10:08:59.093Z,43.89
2019-03-23T10:11:31.333Z,43.71
2019-03-23T10:14:04.283Z,43.34
2019-03-23T10:16:36.558Z,43.27
2019-03-23T10:19:08.992Z,41.92
2019-03-23T10:21:41.309Z,41.84
2019-03-23T10:24:13.779Z,40.18
2019-03-23T10:26:46.296Z,40.18
2019-03-23T10:29:18.658Z,39.91
2019-03-23T10:31:51.307Z,39.91
2019-03-23T10:34:24.018Z,38.88
2019-03-23T10:36:56.631Z,38.88
2019-03-23T10:39:29.420Z,38.20
2019-03-23T10:42:01.273Z,38.14
2019-03-23T10:44:35.007Z,36.99
2019-03-23T10:47:07.739Z,37.30
2019-03-23T10:49:41.303Z,36.09
2019-03-23T10:52:22.973Z,36.36
2019-03-23T10:54:59.393Z,36.36
2019-03-23T10:57:37.636Z,35.56
2019-03-23T11:00:14.302Z,35.56
2019-03-23T11:02:49.795Z,33.79
2019-03-23T11:05:24.729Z,33.79
2019-03-23T11:07:58.574Z,34.94
2019-03-23T11:10:41.581Z,35.13
2019-03-23T11:13:08.231Z,33.90
2019-03-23T11:15:41.308Z,33.10
2019-03-23T11:18:13.092Z,32.58
2019-03-23T11:20:49.282Z,32.35
2019-03-23T11:23:21.061Z,33.04
2019-03-23T11:25:58.429Z,32.77
2019-03-23T11:28:31.301Z,32.76
2019-03-23T11:31:11.314Z,31.92
2019-03-23T11:33:45.507Z,31.92
2019-03-23T11:36:19.572Z,31.77
2019-03-23T11:38:51.821Z,31.93
2019-03-23T11:41:31.403Z,31.05
2019-03-23T11:44:03.278Z,30.99
2019-03-23T11:46:35.803Z,30.61
2019-03-23T11:49:11.795Z,30.55
2019-03-23T11:51:44.542Z,29.72
2019-03-23T11:54:16.886Z,29.71
2019-03-23T11:56:49.455Z,29.63
2019-03-23T11:59:24.374Z,29.95
2019-03-23T12:01:59.774Z,30.13
2019-03-23T12:04:39.933Z,30.28
2019-03-23T12:07:16.860Z,30.18
2019-03-23T12:09:49.459Z,29.55
2019-03-23T12:12:24.424Z,27.45
2019-03-23T12:14:56.908Z,25.72
2019-03-23T12:17:29.944Z,25.72
2019-03-23T12:20:04.638Z,25.07
2019-03-23T12:22:38.460Z,23.56
2019-03-23T12:25:12.336Z,23.30
2019-03-23T12:27:47.476Z,23.16
2019-03-23T12:30:20.447Z,22.40
2019-03-23T12:32:53.045Z,22.70
2019-03-23T12:35:25.716Z,22.80
2019-03-23T12:37:58.289Z,21.09
2019-03-23T12:40:30.583Z,18.79
2019-03-23T12:43:03.292Z,18.79
2019-03-23T12:45:35.025Z,18.77
2019-03-23T12:48:07.359Z,18.77
2019-03-23T12:50:39.233Z,17.13
2019-03-23T12:53:11.506Z,17.13
2019-03-23T12:55:44.047Z,17.40
2019-03-23T12:58:16.503Z,18.20
2019-03-23T13:00:48.836Z,18.35
2019-03-23T13:03:21.353Z,18.01
2019-03-23T13:05:53.248Z,16.89
2019-03-23T13:08:25.750Z,17.56
2019-03-23T13:10:58.301Z,17.13
2019-03-23T13:13:29.999Z,16.72
2019-03-23T13:16:04.326Z,16.72
2019-03-23T13:18:37.025Z,15.60
2019-03-23T13:21:13.279Z,14.41
2019-03-23T13:23:46.737Z,13.92
2019-03-23T13:26:21.037Z,13.92
2019-03-23T13:28:53.688Z,12.62
2019-03-23T13:31:26.624Z,12.72
2019-03-23T13:33:59.349Z,12.71
2019-03-23T13:36:31.092Z,12.69
2019-03-23T13:39:05.271Z,12.69
2019-03-23T13:41:49.147Z,12.04
2019-03-23T13:44:22.288Z,12.04
2019-03-23T13:46:53.586Z,11.35
2019-03-23T13:49:25.015Z,10.92
2019-03-23T13:51:57.434Z,10.91
2019-03-23T13:54:29.745Z,12.12
2019-03-23T13:57:02.294Z,10.97
2019-03-23T13:59:34.612Z,12.12
2019-03-23T14:02:07.296Z,12.12
2019-03-23T14:04:39.749Z,11.43
2019-03-23T14:07:12.291Z,11.43
2019-03-23T14:09:44.842Z,12.54
2019-03-23T14:12:17.329Z,12.54
2019-03-23T14:14:48.573Z,13.08
2019-03-23T14:17:20.616Z,12.63
2019-03-23T14:19:53.035Z,12.26
2019-03-23T14:22:28.399Z,11.13
2019-03-23T14:25:03.291Z,10.18
2019-03-23T14:27:35.264Z,10.99
2019-03-23T14:30:09.354Z,11.03
2019-03-23T14:32:41.770Z,11.82
2019-03-23T14:35:15.681Z,11.82
2019-03-23T14:37:48.282Z,10.94
2019-03-23T14:40:20.645Z,10.59
2019-03-23T14:42:53.260Z,10.59
2019-03-23T14:45:27.285Z,11.51
2019-03-23T14:47:59.149Z,12.14
2019-03-23T14:50:34.321Z,12.14
2019-03-23T14:53:06.698Z,11.10
2019-03-23T14:55:39.294Z,11.10
2019-03-23T14:58:13.306Z,10.98
2019-03-23T15:00:45.607Z,11.29
2019-03-23T15:03:18.103Z,11.29
2019-03-23T15:05:50.470Z,12.46
2019-03-23T15:08:23.033Z,11.53
2019-03-23T15:10:55.384Z,11.56
2019-03-23T15:13:29.450Z,12.07
2019-03-23T15:16:01.031Z,12.07
2019-03-23T15:18:33.374Z,12.10
2019-03-23T15:21:05.044Z,12.68
2019-03-23T15:23:37.418Z,12.68
2019-03-23T15:26:09.244Z,11.08
2019-03-23T15:28:44.446Z,11.14
2019-03-23T15:31:16.032Z,11.95
2019-03-23T15:33:48.457Z,11.53
2019-03-23T15:36:20.206Z,11.40
2019-03-23T15:38:52.449Z,11.24
2019-03-23T15:41:24.883Z,11.69
2019-03-23T15:43:58.422Z,11.91
2019-03-23T15:46:30.072Z,12.17
2019-03-23T15:49:02.398Z,12.81
2019-03-23T15:51:34.183Z,12.90
2019-03-23T15:54:06.614Z,12.40
2019-03-23T15:56:39.090Z,13.31
2019-03-23T15:59:11.441Z,11.96
2019-03-23T16:01:43.221Z,12.86
2019-03-23T16:04:15.534Z,13.42
2019-03-23T16:06:47.876Z,12.16
2019-03-23T16:09:20.330Z,14.13
2019-03-23T16:11:52.696Z,13.92
2019-03-23T16:14:25.331Z,13.92
2019-03-23T16:16:57.668Z,13.31
2019-03-23T16:19:30.292Z,13.31
2019-03-23T16:22:03.086Z,13.72
2019-03-23T16:24:36.747Z,13.72
2019-03-23T16:27:09.374Z,13.95
2019-03-23T16:29:40.913Z,14.92
2019-03-23T16:32:13.292Z,14.92
2019-03-23T16:34:51.010Z,16.01
2019-03-23T16:37:23.531Z,16.01
2019-03-23T16:39:58.327Z,15.94
2019-03-23T16:42:30.812Z,16.71
2019-03-23T16:45:03.342Z,16.71
2019-03-23T16:47:34.567Z,17.53
2019-03-23T16:50:08.194Z,17.85
2019-03-23T16:52:45.290Z,17.41
2019-03-23T16:55:17.975Z,19.29
2019-03-23T16:57:51.485Z,19.29
2019-03-23T17:00:49.453Z,20.34
2019-03-23T17:03:35.338Z,20.91
2019-03-23T17:06:08.272Z,22.50
2019-03-23T17:08:42.359Z,25.43
2019-03-23T17:11:16.305Z,25.56
2019-03-23T17:13:50.420Z,26.75
2019-03-23T17:16:22.225Z,26.75
2019-03-23T17:19:03.885Z,27.30
2019-03-23T19:29:10.071Z,49.12
2019-03-23T19:31:42.407Z,49.12
2019-03-23T19:34:14.697Z,49.61
2019-03-23T19:36:47.303Z,49.87
2019-03-23T19:39:19.775Z,50.28
2019-03-23T19:41:52.426Z,50.28
2019-03-23T19:44:24.867Z,51.90
2019-03-23T19:46:57.855Z,50.91
2019-03-23T19:49:30.293Z,51.88
2019-03-23T19:52:02.577Z,51.73
2019-03-23T19:54:35.294Z,51.73
2019-03-23T19:57:08.042Z,51.86
2019-03-23T19:59:43.313Z,51.86
2019-03-23T20:02:15.868Z,52.79
2019-03-23T20:04:48.699Z,52.79
2019-03-23T20:07:21.072Z,53.32
2019-03-23T20:09:53.526Z,53.50
2019-03-23T20:12:26.287Z,54.21
2019-03-23T20:14:58.493Z,54.20
2019-03-23T20:17:29.915Z,54.12
2019-03-23T20:20:08.658Z,55.70
2019-03-23T20:22:42.409Z,55.02
2019-03-23T20:25:17.140Z,54.95
2019-03-23T20:27:49.648Z,54.79
2019-03-23T20:30:23.509Z,55.83
2019-03-23T20:32:56.322Z,55.24
2019-03-23T20:35:28.661Z,56.21
2019-03-23T20:38:01.347Z,56.21
2019-03-23T20:40:35.669Z,55.98
2019-03-23T20:43:08.338Z,57.28
2019-03-23T20:50:07.453Z,56.80
2019-03-23T20:52:39.271Z,57.63
2019-03-23T20:55:28.288Z,57.77
2019-03-23T20:58:02.237Z,58.09
2019-03-23T21:00:36.441Z,58.94
2019-03-23T21:03:10.477Z,58.94
2019-03-23T21:05:42.236Z,58.96
2019-03-23T21:08:14.856Z,59.94
2019-03-23T21:10:47.368Z,60.52
2019-03-23T21:13:21.496Z,60.18
2019-03-23T21:16:28.260Z,60.18
2019-03-23T21:26:22.787Z,60.98
2019-03-23T21:35:58.363Z,62.38
2019-03-23T21:38:30.980Z,61.60
2019-03-23T21:41:05.307Z,61.60
2019-03-23T21:43:37.810Z,61.47
2019-03-23T21:46:10.297Z,61.47
2019-03-23T21:48:42.290Z,61.73
2019-03-23T21:51:14.643Z,62.48
2019-03-23T21:53:48.514Z,63.62
2019-03-23T21:56:20.241Z,63.96
2019-03-23T21:58:52.635Z,62.77
2019-03-23T22:01:25.340Z,62.75
2019-03-23T22:03:57.875Z,63.36
2019-03-23T22:06:30.534Z,63.36
2019-03-23T22:09:05.064Z,63.42
2019-03-23T22:11:37.728Z,63.88
2019-03-23T22:14:11.312Z,63.25
2019-03-23T22:16:44.332Z,63.93
2019-03-23T22:19:18.550Z,63.99
2019-03-23T22:21:51.307Z,63.99
2019-03-23T22:24:23.235Z,64.27
2019-03-23T22:26:56.011Z,64.91
2019-03-23T22:29:29.679Z,65.32
2019-03-23T22:32:02.500Z,65.15
2019-03-23T22:34:44.331Z,65.70
2019-03-23T22:37:15.972Z,66.50
2019-03-23T22:39:48.976Z,66.26
2019-03-23T22:42:24.517Z,66.54
2019-03-23T22:44:57.296Z,66.60
2019-03-23T22:47:29.578Z,66.95
2019-03-23T22:50:02.017Z,66.95
2019-03-23T22:52:36.393Z,67.11
2019-03-23T22:55:09.948Z,62.41
2019-03-23T22:57:42.425Z,67.12
2019-03-23T23:00:20.264Z,67.47
2019-03-23T23:02:54.587Z,67.45
2019-03-23T23:05:27.018Z,68.02
2019-03-23T23:07:59.510Z,68.18
2019-03-23T23:10:31.393Z,68.63
2019-03-23T23:13:03.231Z,68.51
2019-03-23T23:15:35.516Z,68.67
2019-03-23T23:18:07.968Z,68.74
2019-03-23T23:20:40.368Z,68.76
2019-03-23T23:23:12.420Z,68.60
2019-03-23T23:25:45.989Z,68.14
2019-03-23T23:28:18.610Z,68.39
2019-03-23T23:30:51.104Z,69.22
2019-03-23T23:33:23.552Z,69.13
2019-03-23T23:35:56.091Z,69.54
2019-03-23T23:38:28.397Z,69.60
2019-03-23T23:41:00.682Z,70.68
2019-03-23T23:43:33.299Z,70.68
2019-03-23T23:46:05.728Z,70.91
2019-03-23T23:48:38.363Z,70.91
2019-03-23T23:51:11.503Z,71.76
2019-03-23T23:53:44.295Z,71.37
2019-03-23T23:56:16.625Z,71.49
2019-03-23T23:58:49.302Z,71.49
